sensor_id;sensor_type;location;lat;lon;timestamp;P1;durP1;ratioP1;P2;durP2;ratioP2
21645;SDS011;10984;45.712;4.800;2023-04-03T00:01:27;2.65;;;1.15;;
21645;SDS011;10984;45.712;4.800;2023-04-03T00:03:53;1.77;;;0.75;;
21645;SDS011;10984;45.712;4.800;2023-04-03T00:06:18;3.00;;;1.38;;
21645;SDS011;10984;45.712;4.800;2023-04-03T00:08:45;2.70;;;1.02;;
21645;SDS011;10984;45.712;4.800;2023-04-03T00:11:10;2.65;;;0.85;;
21645;SDS011;10984;45.712;4.800;2023-04-03T00:13:36;5.80;;;0.68;;
21645;SDS011;10984;45.712;4.800;2023-04-03T00:16:03;1.65;;;0.68;;
21645;SDS011;10984;45.712;4.800;2023-04-03T00:18:29;2.15;;;0.90;;
21645;SDS011;10984;45.712;4.800;2023-04-03T00:20:55;1.33;;;0.50;;
21645;SDS011;10984;45.712;4.800;2023-04-03T00:23:20;1.98;;;0.68;;
21645;SDS011;10984;45.712;4.800;2023-04-03T00:25:48;1.77;;;0.60;;
21645;SDS011;10984;45.712;4.800;2023-04-03T00:28:14;1.38;;;0.50;;
21645;SDS011;10984;45.712;4.800;2023-04-03T00:30:40;1.20;;;0.40;;
21645;SDS011;10984;45.712;4.800;2023-04-03T00:33:06;3.13;;;0.60;;
21645;SDS011;10984;45.712;4.800;2023-04-03T00:35:33;1.80;;;0.77;;
21645;SDS011;10984;45.712;4.800;2023-04-03T00:37:59;1.60;;;0.40;;
21645;SDS011;10984;45.712;4.800;2023-04-03T00:40:25;1.90;;;0.50;;
21645;SDS011;10984;45.712;4.800;2023-04-03T00:42:55;2.50;;;0.80;;
21645;SDS011;10984;45.712;4.800;2023-04-03T00:48:11;1.52;;;0.43;;
21645;SDS011;10984;45.712;4.800;2023-04-03T00:50:57;1.50;;;0.55;;
21645;SDS011;10984;45.712;4.800;2023-04-03T00:53:25;2.28;;;0.60;;
21645;SDS011;10984;45.712;4.800;2023-04-03T00:55:57;1.50;;;0.63;;
21645;SDS011;10984;45.712;4.800;2023-04-03T00:58:27;2.20;;;0.55;;
21645;SDS011;10984;45.712;4.800;2023-04-03T01:00:58;1.10;;;0.60;;
21645;SDS011;10984;45.712;4.800;2023-04-03T01:03:30;3.65;;;0.52;;
21645;SDS011;10984;45.712;4.800;2023-04-03T01:05:56;1.90;;;0.60;;
21645;SDS011;10984;45.712;4.800;2023-04-03T01:08:22;1.63;;;0.63;;
21645;SDS011;10984;45.712;4.800;2023-04-03T01:10:48;1.38;;;0.50;;
21645;SDS011;10984;45.712;4.800;2023-04-03T01:18:44;1.58;;;0.50;;
21645;SDS011;10984;45.712;4.800;2023-04-03T01:27:00;4.47;;;0.90;;
21645;SDS011;10984;45.712;4.800;2023-04-03T01:29:28;1.55;;;0.45;;
21645;SDS011;10984;45.712;4.800;2023-04-03T01:31:58;1.35;;;0.40;;
21645;SDS011;10984;45.712;4.800;2023-04-03T01:34:25;1.85;;;0.40;;
21645;SDS011;10984;45.712;4.800;2023-04-03T01:36:52;0.90;;;0.40;;
21645;SDS011;10984;45.712;4.800;2023-04-03T01:39:18;0.95;;;0.43;;
21645;SDS011;10984;45.712;4.800;2023-04-03T01:41:44;2.10;;;0.50;;
21645;SDS011;10984;45.712;4.800;2023-04-03T01:44:10;1.08;;;0.40;;
21645;SDS011;10984;45.712;4.800;2023-04-03T01:46:36;0.52;;;0.20;;
21645;SDS011;10984;45.712;4.800;2023-04-03T01:49:02;2.08;;;0.30;;
21645;SDS011;10984;45.712;4.800;2023-04-03T01:51:29;0.88;;;0.40;;
21645;SDS011;10984;45.712;4.800;2023-04-03T01:53:55;1.40;;;0.50;;
21645;SDS011;10984;45.712;4.800;2023-04-03T01:56:21;1.55;;;0.70;;
21645;SDS011;10984;45.712;4.800;2023-04-03T01:58:47;1.92;;;0.88;;
21645;SDS011;10984;45.712;4.800;2023-04-03T02:01:12;0.80;;;0.40;;
21645;SDS011;10984;45.712;4.800;2023-04-03T02:03:38;1.15;;;0.40;;
21645;SDS011;10984;45.712;4.800;2023-04-03T02:06:04;2.53;;;0.70;;
21645;SDS011;10984;45.712;4.800;2023-04-03T02:08:30;1.55;;;0.47;;
21645;SDS011;10984;45.712;4.800;2023-04-03T02:10:56;1.50;;;0.50;;
21645;SDS011;10984;45.712;4.800;2023-04-03T02:13:22;1.27;;;0.50;;
21645;SDS011;10984;45.712;4.800;2023-04-03T02:15:47;1.00;;;0.38;;
21645;SDS011;10984;45.712;4.800;2023-04-03T02:18:13;0.38;;;0.20;;
21645;SDS011;10984;45.712;4.800;2023-04-03T02:20:39;0.98;;;0.55;;
21645;SDS011;10984;45.712;4.800;2023-04-03T02:23:05;0.65;;;0.20;;
21645;SDS011;10984;45.712;4.800;2023-04-03T02:25:31;0.93;;;0.43;;
21645;SDS011;10984;45.712;4.800;2023-04-03T02:27:58;2.08;;;0.68;;
21645;SDS011;10984;45.712;4.800;2023-04-03T02:30:23;0.50;;;0.20;;
21645;SDS011;10984;45.712;4.800;2023-04-03T02:32:49;0.10;;;0.10;;
21645;SDS011;10984;45.712;4.800;2023-04-03T02:35:15;0.80;;;0.30;;
21645;SDS011;10984;45.712;4.800;2023-04-03T02:37:41;1.05;;;0.40;;
21645;SDS011;10984;45.712;4.800;2023-04-03T02:40:06;0.85;;;0.20;;
21645;SDS011;10984;45.712;4.800;2023-04-03T02:42:32;0.38;;;0.25;;
21645;SDS011;10984;45.712;4.800;2023-04-03T02:44:58;0.70;;;0.30;;
21645;SDS011;10984;45.712;4.800;2023-04-03T02:47:25;0.65;;;0.32;;
21645;SDS011;10984;45.712;4.800;2023-04-03T02:49:51;1.55;;;0.38;;
21645;SDS011;10984;45.712;4.800;2023-04-03T02:52:17;0.77;;;0.22;;
21645;SDS011;10984;45.712;4.800;2023-04-03T02:54:43;0.32;;;0.17;;
21645;SDS011;10984;45.712;4.800;2023-04-03T02:57:09;0.30;;;0.20;;
21645;SDS011;10984;45.712;4.800;2023-04-03T02:59:35;0.65;;;0.20;;
21645;SDS011;10984;45.712;4.800;2023-04-03T03:02:02;0.65;;;0.20;;
21645;SDS011;10984;45.712;4.800;2023-04-03T03:04:28;0.50;;;0.20;;
21645;SDS011;10984;45.712;4.800;2023-04-03T03:06:54;0.50;;;0.10;;
21645;SDS011;10984;45.712;4.800;2023-04-03T03:09:20;1.85;;;0.10;;
21645;SDS011;10984;45.712;4.800;2023-04-03T03:11:45;0.20;;;0.20;;
21645;SDS011;10984;45.712;4.800;2023-04-03T03:14:11;0.45;;;0.25;;
21645;SDS011;10984;45.712;4.800;2023-04-03T03:16:36;1.05;;;0.30;;
21645;SDS011;10984;45.712;4.800;2023-04-03T03:19:02;0.20;;;0.20;;
21645;SDS011;10984;45.712;4.800;2023-04-03T03:21:28;0.38;;;0.20;;
21645;SDS011;10984;45.712;4.800;2023-04-03T03:23:53;0.90;;;0.20;;
21645;SDS011;10984;45.712;4.800;2023-04-03T03:26:19;0.55;;;0.28;;
21645;SDS011;10984;45.712;4.800;2023-04-03T03:28:45;1.17;;;0.30;;
21645;SDS011;10984;45.712;4.800;2023-04-03T03:31:11;1.20;;;0.30;;
21645;SDS011;10984;45.712;4.800;2023-04-03T03:33:37;0.65;;;0.30;;
21645;SDS011;10984;45.712;4.800;2023-04-03T03:36:02;0.50;;;0.20;;
21645;SDS011;10984;45.712;4.800;2023-04-03T03:38:28;0.52;;;0.22;;
21645;SDS011;10984;45.712;4.800;2023-04-03T03:40:54;0.82;;;0.40;;
21645;SDS011;10984;45.712;4.800;2023-04-03T03:43:19;0.98;;;0.50;;
21645;SDS011;10984;45.712;4.800;2023-04-03T03:45:46;2.33;;;0.73;;
21645;SDS011;10984;45.712;4.800;2023-04-03T03:48:16;1.98;;;0.95;;
21645;SDS011;10984;45.712;4.800;2023-04-03T03:50:41;2.88;;;1.13;;
21645;SDS011;10984;45.712;4.800;2023-04-03T03:53:07;1.88;;;0.70;;
21645;SDS011;10984;45.712;4.800;2023-04-03T03:55:32;1.85;;;0.70;;
21645;SDS011;10984;45.712;4.800;2023-04-03T03:57:58;1.92;;;0.90;;
21645;SDS011;10984;45.712;4.800;2023-04-03T04:00:26;2.90;;;1.20;;
21645;SDS011;10984;45.712;4.800;2023-04-03T04:02:52;3.97;;;1.60;;
21645;SDS011;10984;45.712;4.800;2023-04-03T04:05:18;2.70;;;1.42;;
21645;SDS011;10984;45.712;4.800;2023-04-03T04:07:43;2.80;;;1.25;;
21645;SDS011;10984;45.712;4.800;2023-04-03T04:10:09;2.08;;;0.88;;
21645;SDS011;10984;45.712;4.800;2023-04-03T04:12:35;5.35;;;2.22;;
21645;SDS011;10984;45.712;4.800;2023-04-03T04:15:01;2.30;;;1.00;;
21645;SDS011;10984;45.712;4.800;2023-04-03T04:17:27;3.20;;;1.42;;
21645;SDS011;10984;45.712;4.800;2023-04-03T04:19:52;2.92;;;1.15;;
21645;SDS011;10984;45.712;4.800;2023-04-03T04:22:18;3.47;;;1.65;;
21645;SDS011;10984;45.712;4.800;2023-04-03T04:24:44;2.75;;;1.25;;
21645;SDS011;10984;45.712;4.800;2023-04-03T04:27:09;2.85;;;1.50;;
21645;SDS011;10984;45.712;4.800;2023-04-03T04:29:35;3.15;;;1.42;;
21645;SDS011;10984;45.712;4.800;2023-04-03T04:32:02;3.95;;;1.98;;
21645;SDS011;10984;45.712;4.800;2023-04-03T04:34:28;2.90;;;1.52;;
21645;SDS011;10984;45.712;4.800;2023-04-03T04:36:54;3.97;;;1.80;;
21645;SDS011;10984;45.712;4.800;2023-04-03T04:39:20;3.60;;;1.80;;
21645;SDS011;10984;45.712;4.800;2023-04-03T04:41:46;3.42;;;1.90;;
21645;SDS011;10984;45.712;4.800;2023-04-03T04:44:11;3.53;;;1.48;;
21645;SDS011;10984;45.712;4.800;2023-04-03T04:46:37;4.95;;;2.45;;
21645;SDS011;10984;45.712;4.800;2023-04-03T04:49:02;3.95;;;2.00;;
21645;SDS011;10984;45.712;4.800;2023-04-03T04:51:28;5.65;;;2.35;;
21645;SDS011;10984;45.712;4.800;2023-04-03T04:53:54;4.70;;;1.90;;
21645;SDS011;10984;45.712;4.800;2023-04-03T04:56:20;3.88;;;1.92;;
21645;SDS011;10984;45.712;4.800;2023-04-03T04:58:45;4.10;;;1.80;;
21645;SDS011;10984;45.712;4.800;2023-04-03T05:01:11;4.45;;;2.38;;
21645;SDS011;10984;45.712;4.800;2023-04-03T05:03:37;4.93;;;2.60;;
21645;SDS011;10984;45.712;4.800;2023-04-03T05:06:03;4.32;;;2.22;;
21645;SDS011;10984;45.712;4.800;2023-04-03T05:08:28;4.13;;;2.05;;
21645;SDS011;10984;45.712;4.800;2023-04-03T05:10:54;4.55;;;2.35;;
21645;SDS011;10984;45.712;4.800;2023-04-03T05:13:20;4.47;;;2.10;;
21645;SDS011;10984;45.712;4.800;2023-04-03T05:15:46;4.22;;;2.45;;
21645;SDS011;10984;45.712;4.800;2023-04-03T05:18:12;4.47;;;2.50;;
21645;SDS011;10984;45.712;4.800;2023-04-03T05:20:38;5.95;;;2.55;;
21645;SDS011;10984;45.712;4.800;2023-04-03T05:23:04;5.20;;;2.47;;
21645;SDS011;10984;45.712;4.800;2023-04-03T05:25:31;5.30;;;2.90;;
21645;SDS011;10984;45.712;4.800;2023-04-03T05:27:56;4.65;;;2.42;;
21645;SDS011;10984;45.712;4.800;2023-04-03T05:30:22;4.70;;;2.20;;
21645;SDS011;10984;45.712;4.800;2023-04-03T05:32:48;4.13;;;1.95;;
21645;SDS011;10984;45.712;4.800;2023-04-03T05:35:13;4.43;;;2.15;;
21645;SDS011;10984;45.712;4.800;2023-04-03T05:37:39;4.45;;;1.95;;
21645;SDS011;10984;45.712;4.800;2023-04-03T05:40:06;4.35;;;2.13;;
21645;SDS011;10984;45.712;4.800;2023-04-03T05:42:32;4.82;;;1.77;;
21645;SDS011;10984;45.712;4.800;2023-04-03T05:44:58;4.28;;;1.90;;
21645;SDS011;10984;45.712;4.800;2023-04-03T05:47:24;3.97;;;1.98;;
21645;SDS011;10984;45.712;4.800;2023-04-03T05:49:50;6.63;;;2.50;;
21645;SDS011;10984;45.712;4.800;2023-04-03T05:52:18;5.15;;;2.30;;
21645;SDS011;10984;45.712;4.800;2023-04-03T05:55:04;5.70;;;2.50;;
21645;SDS011;10984;45.712;4.800;2023-04-03T05:57:30;4.68;;;2.55;;
21645;SDS011;10984;45.712;4.800;2023-04-03T05:59:56;3.90;;;1.95;;
21645;SDS011;10984;45.712;4.800;2023-04-03T06:02:22;5.10;;;2.78;;
21645;SDS011;10984;45.712;4.800;2023-04-03T06:04:49;6.35;;;3.08;;
21645;SDS011;10984;45.712;4.800;2023-04-03T06:07:17;7.93;;;3.90;;
21645;SDS011;10984;45.712;4.800;2023-04-03T06:09:46;6.82;;;3.78;;
21645;SDS011;10984;45.712;4.800;2023-04-03T06:12:12;8.93;;;4.40;;
21645;SDS011;10984;45.712;4.800;2023-04-03T06:14:37;7.35;;;3.92;;
21645;SDS011;10984;45.712;4.800;2023-04-03T06:17:03;8.80;;;5.10;;
21645;SDS011;10984;45.712;4.800;2023-04-03T06:19:29;12.00;;;4.00;;
21645;SDS011;10984;45.712;4.800;2023-04-03T06:21:55;8.30;;;4.43;;
21645;SDS011;10984;45.712;4.800;2023-04-03T06:24:21;8.75;;;4.03;;
21645;SDS011;10984;45.712;4.800;2023-04-03T06:26:48;8.52;;;4.20;;
21645;SDS011;10984;45.712;4.800;2023-04-03T06:29:16;9.45;;;5.00;;
21645;SDS011;10984;45.712;4.800;2023-04-03T06:31:42;10.15;;;5.18;;
21645;SDS011;10984;45.712;4.800;2023-04-03T06:34:08;9.32;;;4.57;;
21645;SDS011;10984;45.712;4.800;2023-04-03T06:36:36;9.95;;;5.20;;
21645;SDS011;10984;45.712;4.800;2023-04-03T06:39:02;10.90;;;5.82;;
21645;SDS011;10984;45.712;4.800;2023-04-03T06:41:28;12.63;;;5.22;;
21645;SDS011;10984;45.712;4.800;2023-04-03T06:43:54;9.15;;;4.72;;
21645;SDS011;10984;45.712;4.800;2023-04-03T06:46:22;9.05;;;4.43;;
21645;SDS011;10984;45.712;4.800;2023-04-03T06:48:49;8.70;;;4.45;;
21645;SDS011;10984;45.712;4.800;2023-04-03T06:53:59;9.18;;;5.13;;
21645;SDS011;10984;45.712;4.800;2023-04-03T06:56:26;10.05;;;5.43;;
21645;SDS011;10984;45.712;4.800;2023-04-03T06:58:53;11.38;;;4.85;;
21645;SDS011;10984;45.712;4.800;2023-04-03T07:01:20;9.63;;;4.78;;
21645;SDS011;10984;45.712;4.800;2023-04-03T07:03:46;15.65;;;6.30;;
21645;SDS011;10984;45.712;4.800;2023-04-03T07:06:13;11.57;;;5.25;;
21645;SDS011;10984;45.712;4.800;2023-04-03T07:08:40;11.50;;;5.60;;
21645;SDS011;10984;45.712;4.800;2023-04-03T07:11:07;9.82;;;4.70;;
21645;SDS011;10984;45.712;4.800;2023-04-03T07:13:34;9.93;;;5.35;;
21645;SDS011;10984;45.712;4.800;2023-04-03T07:16:01;8.20;;;4.35;;
21645;SDS011;10984;45.712;4.800;2023-04-03T07:18:28;9.90;;;4.78;;
21645;SDS011;10984;45.712;4.800;2023-04-03T07:20:54;10.63;;;4.20;;
21645;SDS011;10984;45.712;4.800;2023-04-03T07:23:20;7.50;;;3.85;;
21645;SDS011;10984;45.712;4.800;2023-04-03T07:25:46;8.25;;;4.30;;
21645;SDS011;10984;45.712;4.800;2023-04-03T07:28:13;7.47;;;4.20;;
21645;SDS011;10984;45.712;4.800;2023-04-03T07:33:26;8.05;;;4.38;;
21645;SDS011;10984;45.712;4.800;2023-04-03T07:35:52;7.95;;;4.13;;
21645;SDS011;10984;45.712;4.800;2023-04-03T07:38:18;9.73;;;5.47;;
21645;SDS011;10984;45.712;4.800;2023-04-03T07:43:29;8.18;;;4.13;;
21645;SDS011;10984;45.712;4.800;2023-04-03T07:45:55;7.38;;;3.95;;
21645;SDS011;10984;45.712;4.800;2023-04-03T07:48:21;8.02;;;4.40;;
21645;SDS011;10984;45.712;4.800;2023-04-03T07:50:48;10.05;;;4.53;;
21645;SDS011;10984;45.712;4.800;2023-04-03T07:53:14;9.50;;;4.82;;
21645;SDS011;10984;45.712;4.800;2023-04-03T07:55:40;9.88;;;4.70;;
21645;SDS011;10984;45.712;4.800;2023-04-03T07:58:25;9.60;;;4.70;;
21645;SDS011;10984;45.712;4.800;2023-04-03T08:00:50;8.63;;;4.47;;
21645;SDS011;10984;45.712;4.800;2023-04-03T08:03:17;10.93;;;5.70;;
21645;SDS011;10984;45.712;4.800;2023-04-03T08:05:44;10.27;;;5.00;;
21645;SDS011;10984;45.712;4.800;2023-04-03T08:08:11;13.18;;;5.43;;
21645;SDS011;10984;45.712;4.800;2023-04-03T08:10:38;11.52;;;5.05;;
21645;SDS011;10984;45.712;4.800;2023-04-03T08:13:04;7.78;;;4.05;;
21645;SDS011;10984;45.712;4.800;2023-04-03T08:15:30;8.27;;;4.57;;
21645;SDS011;10984;45.712;4.800;2023-04-03T08:17:56;9.40;;;4.13;;
21645;SDS011;10984;45.712;4.800;2023-04-03T08:20:22;9.05;;;4.68;;
21645;SDS011;10984;45.712;4.800;2023-04-03T08:22:48;8.55;;;4.22;;
21645;SDS011;10984;45.712;4.800;2023-04-03T08:25:13;8.52;;;4.47;;
21645;SDS011;10984;45.712;4.800;2023-04-03T08:27:40;9.23;;;4.57;;
21645;SDS011;10984;45.712;4.800;2023-04-03T08:30:05;9.60;;;4.57;;
21645;SDS011;10984;45.712;4.800;2023-04-03T08:32:33;9.18;;;4.75;;
21645;SDS011;10984;45.712;4.800;2023-04-03T08:35:00;8.63;;;4.95;;
21645;SDS011;10984;45.712;4.800;2023-04-03T08:37:27;10.25;;;4.28;;
21645;SDS011;10984;45.712;4.800;2023-04-03T08:39:53;8.40;;;4.90;;
21645;SDS011;10984;45.712;4.800;2023-04-03T08:50:26;10.10;;;4.82;;
21645;SDS011;10984;45.712;4.800;2023-04-03T08:52:57;7.57;;;4.15;;
21645;SDS011;10984;45.712;4.800;2023-04-03T08:58:12;8.32;;;3.92;;
21645;SDS011;10984;45.712;4.800;2023-04-03T09:00:44;8.73;;;4.00;;
21645;SDS011;10984;45.712;4.800;2023-04-03T09:03:47;9.35;;;4.45;;
21645;SDS011;10984;45.712;4.800;2023-04-03T09:17:53;8.10;;;3.90;;
21645;SDS011;10984;45.712;4.800;2023-04-03T09:26:30;8.30;;;4.43;;
21645;SDS011;10984;45.712;4.800;2023-04-03T09:29:20;8.43;;;4.47;;
21645;SDS011;10984;45.712;4.800;2023-04-03T09:31:59;8.25;;;4.13;;
21645;SDS011;10984;45.712;4.800;2023-04-03T09:37:12;6.20;;;3.35;;
21645;SDS011;10984;45.712;4.800;2023-04-03T09:40:00;7.18;;;3.90;;
21645;SDS011;10984;45.712;4.800;2023-04-03T09:42:25;9.00;;;4.47;;
21645;SDS011;10984;45.712;4.800;2023-04-03T09:47:47;9.98;;;4.47;;
21645;SDS011;10984;45.712;4.800;2023-04-03T09:52:39;7.38;;;3.90;;
21645;SDS011;10984;45.712;4.800;2023-04-03T09:55:24;7.68;;;4.20;;
21645;SDS011;10984;45.712;4.800;2023-04-03T09:58:23;8.45;;;4.38;;
21645;SDS011;10984;45.712;4.800;2023-04-03T10:01:20;7.53;;;3.92;;
21645;SDS011;10984;45.712;4.800;2023-04-03T10:03:50;8.25;;;3.88;;
21645;SDS011;10984;45.712;4.800;2023-04-03T10:21:53;7.82;;;3.90;;
21645;SDS011;10984;45.712;4.800;2023-04-03T10:27:04;5.93;;;3.55;;
21645;SDS011;10984;45.712;4.800;2023-04-03T10:29:54;5.13;;;3.15;;
21645;SDS011;10984;45.712;4.800;2023-04-03T10:47:28;7.28;;;3.75;;
21645;SDS011;10984;45.712;4.800;2023-04-03T11:04:48;5.25;;;3.03;;
21645;SDS011;10984;45.712;4.800;2023-04-03T11:07:21;6.07;;;3.53;;
21645;SDS011;10984;45.712;4.800;2023-04-03T11:15:31;6.45;;;3.08;;
21645;SDS011;10984;45.712;4.800;2023-04-03T11:18:00;6.07;;;3.40;;
21645;SDS011;10984;45.712;4.800;2023-04-03T11:23:48;8.35;;;3.30;;
21645;SDS011;10984;45.712;4.800;2023-04-03T11:26:18;5.43;;;3.25;;
21645;SDS011;10984;45.712;4.800;2023-04-03T11:48:04;7.25;;;3.13;;
21645;SDS011;10984;45.712;4.800;2023-04-03T11:58:50;8.45;;;4.20;;
21645;SDS011;10984;45.712;4.800;2023-04-03T12:04:32;5.97;;;3.38;;
21645;SDS011;10984;45.712;4.800;2023-04-03T12:07:08;5.63;;;3.50;;
21645;SDS011;10984;45.712;4.800;2023-04-03T12:14:49;5.68;;;3.75;;
21645;SDS011;10984;45.712;4.800;2023-04-03T12:20:01;3.92;;;2.30;;
21645;SDS011;10984;45.712;4.800;2023-04-03T12:25:51;4.75;;;2.85;;
21645;SDS011;10984;45.712;4.800;2023-04-03T12:28:24;6.88;;;3.10;;
21645;SDS011;10984;45.712;4.800;2023-04-03T12:30:50;4.35;;;2.45;;
21645;SDS011;10984;45.712;4.800;2023-04-03T12:39:33;5.78;;;2.90;;
21645;SDS011;10984;45.712;4.800;2023-04-03T12:47:33;5.60;;;2.88;;
21645;SDS011;10984;45.712;4.800;2023-04-03T12:50:03;4.18;;;2.60;;
21645;SDS011;10984;45.712;4.800;2023-04-03T12:55:43;4.65;;;2.42;;
21645;SDS011;10984;45.712;4.800;2023-04-03T13:03:56;4.70;;;2.50;;
21645;SDS011;10984;45.712;4.800;2023-04-03T13:11:58;4.22;;;2.45;;
21645;SDS011;10984;45.712;4.800;2023-04-03T13:14:33;5.97;;;2.22;;
21645;SDS011;10984;45.712;4.800;2023-04-03T13:16:59;6.43;;;3.13;;
21645;SDS011;10984;45.712;4.800;2023-04-03T13:19:44;4.57;;;2.38;;
21645;SDS011;10984;45.712;4.800;2023-04-03T13:25:17;4.63;;;2.20;;
21645;SDS011;10984;45.712;4.800;2023-04-03T13:27:45;4.65;;;2.30;;
21645;SDS011;10984;45.712;4.800;2023-04-03T13:32:58;3.85;;;2.15;;
21645;SDS011;10984;45.712;4.800;2023-04-03T13:35:27;4.57;;;2.47;;
21645;SDS011;10984;45.712;4.800;2023-04-03T13:40:58;3.95;;;2.33;;
21645;SDS011;10984;45.712;4.800;2023-04-03T13:43:28;3.35;;;1.83;;
21645;SDS011;10984;45.712;4.800;2023-04-03T13:51:24;7.22;;;2.50;;
21645;SDS011;10984;45.712;4.800;2023-04-03T13:56:57;4.93;;;2.55;;
21645;SDS011;10984;45.712;4.800;2023-04-03T13:59:27;3.85;;;2.15;;
21645;SDS011;10984;45.712;4.800;2023-04-03T14:07:26;3.25;;;1.80;;
21645;SDS011;10984;45.712;4.800;2023-04-03T14:09:54;3.63;;;1.98;;
21645;SDS011;10984;45.712;4.800;2023-04-03T14:15:28;3.17;;;1.73;;
21645;SDS011;10984;45.712;4.800;2023-04-03T14:17:53;5.05;;;2.15;;
21645;SDS011;10984;45.712;4.800;2023-04-03T14:20:20;3.58;;;2.05;;
21645;SDS011;10984;45.712;4.800;2023-04-03T14:22:48;3.05;;;1.88;;
21645;SDS011;10984;45.712;4.800;2023-04-03T14:25:15;3.78;;;1.52;;
21645;SDS011;10984;45.712;4.800;2023-04-03T14:27:42;7.47;;;2.28;;
21645;SDS011;10984;45.712;4.800;2023-04-03T14:32:56;3.05;;;1.50;;
21645;SDS011;10984;45.712;4.800;2023-04-03T14:35:22;2.63;;;1.40;;
21645;SDS011;10984;45.712;4.800;2023-04-03T14:37:49;2.95;;;1.52;;
21645;SDS011;10984;45.712;4.800;2023-04-03T14:40:18;4.55;;;1.67;;
21645;SDS011;10984;45.712;4.800;2023-04-03T14:42:47;4.13;;;1.52;;
21645;SDS011;10984;45.712;4.800;2023-04-03T14:45:14;2.97;;;1.58;;
21645;SDS011;10984;45.712;4.800;2023-04-03T14:50:26;3.45;;;1.80;;
21645;SDS011;10984;45.712;4.800;2023-04-03T14:52:53;4.00;;;2.22;;
21645;SDS011;10984;45.712;4.800;2023-04-03T14:55:22;2.72;;;1.38;;
21645;SDS011;10984;45.712;4.800;2023-04-03T14:57:48;3.20;;;1.63;;
21645;SDS011;10984;45.712;4.800;2023-04-03T15:00:18;3.10;;;1.52;;
21645;SDS011;10984;45.712;4.800;2023-04-03T15:02:46;2.97;;;1.50;;
21645;SDS011;10984;45.712;4.800;2023-04-03T15:05:13;3.03;;;1.52;;
21645;SDS011;10984;45.712;4.800;2023-04-03T15:07:41;3.15;;;1.42;;
21645;SDS011;10984;45.712;4.800;2023-04-03T15:13:10;3.03;;;1.65;;
21645;SDS011;10984;45.712;4.800;2023-04-03T15:15:37;3.42;;;1.73;;
21645;SDS011;10984;45.712;4.800;2023-04-03T15:18:03;3.92;;;2.00;;
21645;SDS011;10984;45.712;4.800;2023-04-03T15:20:29;3.47;;;1.40;;
21645;SDS011;10984;45.712;4.800;2023-04-03T15:22:58;2.50;;;1.08;;
21645;SDS011;10984;45.712;4.800;2023-04-03T15:25:26;6.93;;;1.42;;
21645;SDS011;10984;45.712;4.800;2023-04-03T15:27:55;6.25;;;2.60;;
21645;SDS011;10984;45.712;4.800;2023-04-03T15:30:21;8.02;;;3.53;;
21645;SDS011;10984;45.712;4.800;2023-04-03T15:32:47;5.65;;;2.53;;
21645;SDS011;10984;45.712;4.800;2023-04-03T15:35:14;4.85;;;1.70;;
21645;SDS011;10984;45.712;4.800;2023-04-03T15:37:40;3.80;;;1.38;;
21645;SDS011;10984;45.712;4.800;2023-04-03T15:40:06;2.38;;;1.27;;
21645;SDS011;10984;45.712;4.800;2023-04-03T15:42:33;3.53;;;1.75;;
21645;SDS011;10984;45.712;4.800;2023-04-03T15:44:59;2.90;;;1.73;;
21645;SDS011;10984;45.712;4.800;2023-04-03T15:47:25;2.90;;;1.50;;
21645;SDS011;10984;45.712;4.800;2023-04-03T15:49:52;3.25;;;1.60;;
21645;SDS011;10984;45.712;4.800;2023-04-03T15:52:19;5.25;;;1.73;;
21645;SDS011;10984;45.712;4.800;2023-04-03T15:54:45;3.30;;;1.50;;
21645;SDS011;10984;45.712;4.800;2023-04-03T15:57:10;4.60;;;1.73;;
21645;SDS011;10984;45.712;4.800;2023-04-03T15:59:36;3.80;;;2.15;;
21645;SDS011;10984;45.712;4.800;2023-04-03T16:02:02;3.08;;;1.35;;
21645;SDS011;10984;45.712;4.800;2023-04-03T16:04:31;2.85;;;1.50;;
21645;SDS011;10984;45.712;4.800;2023-04-03T16:06:57;3.65;;;1.77;;
21645;SDS011;10984;45.712;4.800;2023-04-03T16:09:26;2.50;;;1.30;;
21645;SDS011;10984;45.712;4.800;2023-04-03T16:11:52;3.10;;;1.60;;
21645;SDS011;10984;45.712;4.800;2023-04-03T16:14:17;2.70;;;1.30;;
21645;SDS011;10984;45.712;4.800;2023-04-03T16:16:43;3.50;;;1.67;;
21645;SDS011;10984;45.712;4.800;2023-04-03T16:19:09;3.05;;;1.60;;
21645;SDS011;10984;45.712;4.800;2023-04-03T16:21:35;3.47;;;1.40;;
21645;SDS011;10984;45.712;4.800;2023-04-03T16:24:01;1.90;;;1.02;;
21645;SDS011;10984;45.712;4.800;2023-04-03T16:26:28;3.08;;;1.67;;
21645;SDS011;10984;45.712;4.800;2023-04-03T16:28:53;2.40;;;1.08;;
21645;SDS011;10984;45.712;4.800;2023-04-03T16:31:19;4.18;;;2.10;;
21645;SDS011;10984;45.712;4.800;2023-04-03T16:33:46;4.32;;;2.10;;
21645;SDS011;10984;45.712;4.800;2023-04-03T16:36:12;3.30;;;1.70;;
21645;SDS011;10984;45.712;4.800;2023-04-03T16:38:37;3.95;;;1.60;;
21645;SDS011;10984;45.712;4.800;2023-04-03T16:41:03;3.15;;;1.85;;
21645;SDS011;10984;45.712;4.800;2023-04-03T16:43:32;6.07;;;1.75;;
21645;SDS011;10984;45.712;4.800;2023-04-03T16:45:59;2.40;;;1.30;;
21645;SDS011;10984;45.712;4.800;2023-04-03T16:48:27;2.05;;;1.10;;
21645;SDS011;10984;45.712;4.800;2023-04-03T16:50:53;2.22;;;1.38;;
21645;SDS011;10984;45.712;4.800;2023-04-03T16:56:03;3.50;;;1.67;;
21645;SDS011;10984;45.712;4.800;2023-04-03T16:58:29;2.50;;;1.20;;
21645;SDS011;10984;45.712;4.800;2023-04-03T17:00:55;3.17;;;1.58;;
21645;SDS011;10984;45.712;4.800;2023-04-03T17:03:21;2.95;;;1.50;;
21645;SDS011;10984;45.712;4.800;2023-04-03T17:05:50;2.88;;;1.63;;
21645;SDS011;10984;45.712;4.800;2023-04-03T17:08:16;3.67;;;1.60;;
21645;SDS011;10984;45.712;4.800;2023-04-03T17:10:43;4.50;;;1.85;;
21645;SDS011;10984;45.712;4.800;2023-04-03T17:13:08;2.60;;;1.52;;
21645;SDS011;10984;45.712;4.800;2023-04-03T17:15:34;4.93;;;1.85;;
21645;SDS011;10984;45.712;4.800;2023-04-03T17:18:00;6.30;;;4.03;;
21645;SDS011;10984;45.712;4.800;2023-04-03T17:20:26;3.05;;;1.55;;
21645;SDS011;10984;45.712;4.800;2023-04-03T17:22:52;3.45;;;1.80;;
21645;SDS011;10984;45.712;4.800;2023-04-03T17:25:18;4.28;;;2.05;;
21645;SDS011;10984;45.712;4.800;2023-04-03T17:27:44;2.70;;;1.40;;
21645;SDS011;10984;45.712;4.800;2023-04-03T17:30:10;3.08;;;1.70;;
21645;SDS011;10984;45.712;4.800;2023-04-03T17:32:36;2.97;;;1.63;;
21645;SDS011;10984;45.712;4.800;2023-04-03T17:35:02;7.07;;;3.15;;
21645;SDS011;10984;45.712;4.800;2023-04-03T17:37:28;5.10;;;2.08;;
21645;SDS011;10984;45.712;4.800;2023-04-03T17:39:54;3.92;;;1.67;;
21645;SDS011;10984;45.712;4.800;2023-04-03T17:42:19;3.58;;;1.88;;
21645;SDS011;10984;45.712;4.800;2023-04-03T17:44:45;2.85;;;1.60;;
21645;SDS011;10984;45.712;4.800;2023-04-03T17:47:11;3.15;;;1.40;;
21645;SDS011;10984;45.712;4.800;2023-04-03T17:49:36;3.28;;;1.52;;
21645;SDS011;10984;45.712;4.800;2023-04-03T17:52:02;4.60;;;2.58;;
21645;SDS011;10984;45.712;4.800;2023-04-03T17:54:28;4.00;;;2.10;;
21645;SDS011;10984;45.712;4.800;2023-04-03T17:56:53;4.30;;;2.40;;
21645;SDS011;10984;45.712;4.800;2023-04-03T17:59:19;5.15;;;1.80;;
21645;SDS011;10984;45.712;4.800;2023-04-03T18:01:45;5.22;;;2.17;;
21645;SDS011;10984;45.712;4.800;2023-04-03T18:04:11;3.25;;;1.75;;
21645;SDS011;10984;45.712;4.800;2023-04-03T18:09:24;5.63;;;2.50;;
21645;SDS011;10984;45.712;4.800;2023-04-03T18:11:52;5.20;;;2.25;;
21645;SDS011;10984;45.712;4.800;2023-04-03T18:14:20;3.75;;;1.60;;
21645;SDS011;10984;45.712;4.800;2023-04-03T18:16:49;5.82;;;2.67;;
21645;SDS011;10984;45.712;4.800;2023-04-03T18:19:15;5.18;;;2.00;;
21645;SDS011;10984;45.712;4.800;2023-04-03T18:21:40;4.20;;;2.22;;
21645;SDS011;10984;45.712;4.800;2023-04-03T18:24:06;4.30;;;2.13;;
21645;SDS011;10984;45.712;4.800;2023-04-03T18:26:37;4.82;;;2.40;;
21645;SDS011;10984;45.712;4.800;2023-04-03T18:29:03;3.97;;;1.98;;
21645;SDS011;10984;45.712;4.800;2023-04-03T18:31:31;4.47;;;2.42;;
21645;SDS011;10984;45.712;4.800;2023-04-03T18:33:59;4.35;;;1.92;;